createdAt,value
2022-07-28T00:00:00.203Z,16.70
2022-07-28T00:03:46.104Z,16.70
2022-07-28T00:07:29.045Z,16.70
2022-07-28T00:11:11.560Z,16.70
2022-07-28T00:14:54.321Z,16.50
2022-07-28T00:18:37.226Z,16.50
2022-07-28T00:22:21.668Z,16.50
2022-07-28T00:26:04.201Z,16.40
2022-07-28T00:29:50.275Z,16.40
2022-07-28T00:33:33.993Z,16.40
2022-07-28T00:37:16.443Z,16.40
2022-07-28T00:41:12.649Z,16.40
2022-07-28T00:44:55.477Z,16.40
2022-07-28T00:48:39.267Z,16.40
2022-07-28T00:52:23.680Z,16.40
2022-07-28T00:56:07.991Z,16.40
2022-07-28T00:59:50.785Z,16.30
2022-07-28T01:03:35.542Z,16.30
2022-07-28T01:07:27.978Z,16.20
2022-07-28T01:11:18.293Z,16.20
2022-07-28T01:15:09.187Z,16.20
2022-07-28T01:18:58.758Z,16.20
2022-07-28T01:22:43.627Z,16.20
2022-07-28T01:26:54.859Z,16.20
2022-07-28T01:30:41.921Z,16.10
2022-07-28T01:34:31.558Z,16.00
2022-07-28T01:38:15.486Z,15.80
2022-07-28T01:42:00.320Z,15.70
2022-07-28T01:45:46.376Z,15.60
2022-07-28T01:49:30.750Z,15.60
2022-07-28T01:53:16.538Z,15.50
2022-07-28T01:57:01.757Z,15.40
2022-07-28T02:00:46.369Z,15.40
2022-07-28T02:04:30.087Z,15.30
2022-07-28T02:08:15.253Z,15.20
2022-07-28T02:11:59.533Z,15.20
2022-07-28T02:15:42.860Z,15.10
2022-07-28T02:19:28.999Z,15.10
2022-07-28T02:23:15.481Z,15.10
2022-07-28T02:27:02.073Z,15.10
2022-07-28T02:30:51.531Z,15.10
2022-07-28T02:34:39.574Z,15.10
2022-07-28T02:38:26.906Z,15.10
2022-07-28T02:42:14.726Z,15.00
2022-07-28T02:46:02.526Z,15.00
2022-07-28T02:49:48.022Z,14.90
2022-07-28T02:53:31.878Z,14.90
2022-07-28T02:57:16.375Z,14.80
2022-07-28T03:00:59.754Z,14.90
2022-07-28T03:04:58.921Z,14.80
2022-07-28T03:08:43.694Z,14.90
2022-07-28T03:12:27.082Z,14.80
2022-07-28T03:16:09.880Z,14.80
2022-07-28T03:19:52.351Z,14.80
2022-07-28T03:23:40.770Z,14.80
2022-07-28T03:27:30.993Z,14.70
2022-07-28T03:31:15.924Z,14.60
2022-07-28T03:35:00.816Z,14.50
2022-07-28T03:38:48.143Z,14.50
2022-07-28T03:42:34.210Z,14.40
2022-07-28T03:46:16.823Z,14.40
2022-07-28T03:49:59.246Z,14.30
2022-07-28T03:53:43.004Z,14.30
2022-07-28T03:57:25.964Z,14.30
2022-07-28T04:01:09.915Z,14.30
2022-07-28T04:04:52.879Z,14.30
2022-07-28T04:08:35.525Z,14.40
2022-07-28T04:12:18.351Z,14.40
2022-07-28T04:16:01.400Z,14.50
2022-07-28T04:19:45.658Z,14.60
2022-07-28T04:23:28.472Z,14.80
2022-07-28T04:27:11.303Z,15.00
2022-07-28T04:30:54.084Z,15.10
2022-07-28T04:34:37.053Z,15.30
2022-07-28T04:38:21.405Z,15.40
2022-07-28T04:42:04.417Z,15.60
2022-07-28T04:45:53.715Z,15.70
2022-07-28T04:49:37.144Z,15.90
2022-07-28T04:53:22.425Z,16.10
2022-07-28T04:57:10.219Z,16.20
2022-07-28T05:00:54.693Z,16.20
2022-07-28T05:04:37.565Z,16.00
2022-07-28T05:08:21.836Z,16.20
2022-07-28T05:12:08.557Z,16.20
2022-07-28T05:15:51.545Z,16.40
2022-07-28T05:19:34.267Z,16.40
2022-07-28T05:23:17.651Z,16.60
2022-07-28T05:27:02.275Z,16.50
2022-07-28T05:30:45.235Z,16.50
2022-07-28T05:34:28.006Z,16.60
2022-07-28T05:38:11.218Z,16.80
2022-07-28T05:41:53.848Z,17.00
2022-07-28T05:45:37.966Z,17.20
2022-07-28T05:49:22.007Z,17.10
2022-07-28T05:53:05.097Z,17.10
2022-07-28T05:56:50.280Z,17.20
2022-07-28T06:00:33.672Z,17.30
2022-07-28T06:04:27.715Z,17.30
2022-07-28T06:08:11.007Z,17.50
2022-07-28T06:11:53.938Z,17.70
2022-07-28T06:15:36.528Z,17.80
2022-07-28T06:19:20.874Z,17.90
2022-07-28T06:23:05.374Z,18.10
2022-07-28T06:26:47.810Z,18.00
2022-07-28T06:30:31.228Z,18.00
2022-07-28T06:34:13.988Z,17.80
2022-07-28T06:37:58.100Z,17.70
2022-07-28T06:41:42.012Z,17.70
2022-07-28T06:45:24.957Z,17.90
2022-07-28T06:49:07.612Z,18.10
2022-07-28T06:52:50.400Z,18.40
2022-07-28T06:56:34.414Z,18.60
2022-07-28T07:00:17.306Z,18.50
2022-07-28T07:03:59.860Z,18.50
2022-07-28T07:07:43.740Z,18.50
2022-07-28T07:11:27.219Z,18.90
2022-07-28T07:15:12.525Z,19.30
2022-07-28T07:18:55.981Z,19.30
2022-07-28T07:22:43.726Z,19.30
2022-07-28T07:26:26.680Z,19.40
2022-07-28T07:30:12.287Z,18.90
2022-07-28T07:33:54.980Z,19.10
2022-07-28T07:37:37.662Z,19.10
2022-07-28T07:41:20.459Z,19.40
2022-07-28T07:45:03.554Z,19.60
2022-07-28T07:48:47.416Z,19.70
2022-07-28T07:52:30.011Z,20.10
2022-07-28T07:56:14.367Z,20.20
2022-07-28T07:59:57.065Z,20.70
2022-07-28T08:03:40.159Z,20.70
2022-07-28T08:07:24.149Z,20.90
2022-07-28T08:11:06.922Z,20.90
2022-07-28T08:14:50.724Z,21.20
2022-07-28T08:18:33.480Z,21.10
2022-07-28T08:22:16.617Z,21.20
2022-07-28T08:26:00.447Z,21.10
2022-07-28T08:29:43.277Z,21.00
2022-07-28T08:33:26.254Z,21.00
2022-07-28T08:37:08.681Z,21.30
2022-07-28T08:40:52.653Z,21.30
2022-07-28T08:44:46.872Z,21.50
2022-07-28T08:48:32.855Z,21.50
2022-07-28T08:52:15.996Z,21.70
2022-07-28T08:56:02.711Z,21.60
2022-07-28T08:59:49.933Z,22.10
2022-07-28T09:03:32.804Z,22.60
2022-07-28T09:07:15.940Z,22.40
2022-07-28T09:10:58.585Z,22.60
2022-07-28T09:14:41.269Z,22.60
2022-07-28T09:18:25.806Z,22.40
2022-07-28T09:22:08.587Z,22.50
2022-07-28T09:25:51.209Z,22.80
2022-07-28T09:29:33.579Z,23.10
2022-07-28T09:33:43.047Z,23.20
2022-07-28T09:37:27.820Z,23.30
2022-07-28T09:41:11.051Z,23.20
2022-07-28T09:45:22.305Z,23.50
2022-07-28T09:49:06.165Z,23.40
2022-07-28T09:52:49.997Z,23.90
2022-07-28T09:56:32.865Z,23.30
2022-07-28T10:00:25.824Z,23.60
2022-07-28T10:04:10.206Z,23.80
2022-07-28T10:07:54.270Z,24.20
2022-07-28T10:11:41.585Z,24.30
2022-07-28T10:15:46.684Z,24.30
2022-07-28T10:19:33.536Z,24.30
2022-07-28T10:23:18.571Z,24.70
2022-07-28T10:27:04.978Z,24.50
2022-07-28T10:30:48.697Z,24.80
2022-07-28T10:34:35.896Z,25.20
2022-07-28T10:38:21.866Z,24.80
2022-07-28T10:42:05.476Z,24.60
2022-07-28T10:46:04.932Z,25.20
2022-07-28T10:49:49.521Z,25.40
2022-07-28T10:53:41.813Z,26.00
2022-07-28T10:57:26.707Z,26.30
2022-07-28T11:01:17.134Z,26.30
2022-07-28T11:05:27.908Z,27.10
2022-07-28T11:09:29.678Z,26.80
2022-07-28T11:13:29.310Z,27.00
2022-07-28T11:17:24.117Z,27.30
2022-07-28T11:21:16.539Z,27.90
2022-07-28T11:25:19.545Z,27.20
2022-07-28T11:29:23.740Z,27.70
2022-07-28T11:33:09.179Z,28.40
2022-07-28T11:37:02.905Z,28.50
2022-07-28T11:40:49.037Z,28.10
2022-07-28T11:44:33.417Z,27.50
2022-07-28T11:48:18.041Z,26.80
2022-07-28T11:52:19.516Z,27.00
2022-07-28T11:56:05.874Z,28.10
2022-07-28T11:59:50.749Z,27.20
2022-07-28T12:03:38.496Z,27.00
2022-07-28T12:07:36.705Z,26.60
2022-07-28T12:11:21.541Z,27.30
2022-07-28T12:15:07.110Z,27.60
2022-07-28T12:18:53.740Z,27.80
2022-07-28T12:22:36.666Z,27.90
2022-07-28T12:26:40.961Z,27.90
2022-07-28T12:30:26.236Z,27.90
2022-07-28T12:34:11.931Z,28.30
2022-07-28T12:37:56.549Z,28.80
2022-07-28T12:41:40.347Z,28.40
2022-07-28T12:45:22.973Z,27.60
2022-07-28T12:49:05.672Z,27.80
2022-07-28T12:53:04.206Z,28.40
2022-07-28T12:56:53.317Z,28.40
2022-07-28T13:00:37.187Z,28.30
2022-07-28T13:04:38.467Z,28.20
2022-07-28T13:08:24.628Z,28.20
2022-07-28T13:12:17.151Z,28.10
2022-07-28T13:16:13.034Z,29.30
2022-07-28T13:20:05.313Z,29.80
2022-07-28T13:23:48.070Z,30.50
2022-07-28T13:27:35.099Z,29.80
2022-07-28T13:31:18.131Z,29.60
2022-07-28T13:35:01.285Z,29.50
2022-07-28T13:38:44.870Z,28.50
2022-07-28T13:42:31.816Z,29.10
2022-07-28T13:46:14.479Z,29.40
2022-07-28T13:49:57.397Z,29.80
2022-07-28T13:53:40.881Z,29.40
2022-07-28T13:57:23.503Z,29.90
2022-07-28T14:01:11.207Z,30.20
2022-07-28T14:04:56.146Z,31.30
2022-07-28T14:08:38.667Z,31.30
2022-07-28T14:12:27.091Z,31.00
2022-07-28T14:16:14.394Z,30.90
2022-07-28T14:19:57.477Z,30.60
2022-07-28T14:23:40.401Z,29.80
2022-07-28T14:27:29.134Z,30.00
2022-07-28T14:31:18.002Z,30.20
2022-07-28T14:35:02.636Z,29.80
2022-07-28T14:38:54.603Z,29.70
2022-07-28T14:42:37.505Z,29.10
2022-07-28T14:46:22.282Z,29.30
2022-07-28T14:50:12.639Z,29.80
2022-07-28T14:53:57.007Z,30.10
2022-07-28T14:57:51.918Z,30.00
2022-07-28T15:01:38.152Z,30.90
2022-07-28T15:05:21.684Z,30.90
2022-07-28T15:09:04.293Z,30.90
2022-07-28T15:12:47.509Z,30.60
2022-07-28T15:16:30.580Z,29.80
2022-07-28T15:20:15.168Z,29.50
2022-07-28T15:23:58.110Z,29.70
2022-07-28T15:27:45.337Z,29.80
2022-07-28T15:31:30.170Z,29.60
2022-07-28T15:35:14.445Z,29.20
2022-07-28T15:38:57.159Z,28.40
2022-07-28T15:42:40.427Z,28.90
2022-07-28T15:46:23.212Z,29.30
2022-07-28T15:50:07.100Z,29.40
2022-07-28T15:53:56.030Z,29.80
2022-07-28T15:57:38.686Z,29.10
2022-07-28T16:01:21.279Z,28.60
2022-07-28T16:05:03.834Z,28.30
2022-07-28T16:08:46.613Z,27.70
2022-07-28T16:12:30.602Z,27.70
2022-07-28T16:16:14.912Z,28.00
2022-07-28T16:20:02.263Z,28.00
2022-07-28T16:23:45.476Z,27.70
2022-07-28T16:27:28.249Z,27.50
2022-07-28T16:31:12.446Z,27.80
2022-07-28T16:34:55.065Z,28.10
2022-07-28T16:38:37.869Z,27.90
2022-07-28T16:42:20.834Z,28.00
2022-07-28T16:46:03.899Z,27.50
2022-07-28T16:49:48.029Z,27.50
2022-07-28T16:53:30.450Z,27.70
2022-07-28T16:57:13.423Z,28.00
2022-07-28T17:00:56.033Z,28.70
2022-07-28T17:04:42.082Z,29.10
2022-07-28T17:08:26.261Z,28.20
2022-07-28T17:12:09.555Z,28.20
2022-07-28T17:15:52.499Z,27.90
2022-07-28T17:19:35.875Z,28.10
2022-07-28T17:23:18.729Z,27.60
2022-07-28T17:31:05.797Z,27.60
2022-07-28T17:34:48.706Z,27.70
2022-07-28T17:38:33.388Z,27.80
2022-07-28T17:42:17.563Z,28.10
2022-07-28T17:46:00.976Z,28.60
2022-07-28T17:49:45.854Z,28.60
2022-07-28T17:53:28.644Z,28.40
2022-07-28T17:57:11.741Z,28.10
2022-07-28T18:00:57.916Z,28.20
2022-07-28T18:04:41.012Z,27.70
2022-07-28T18:08:24.973Z,27.80
2022-07-28T18:12:09.037Z,28.00
2022-07-28T18:15:51.873Z,27.90
2022-07-28T18:19:35.938Z,28.40
2022-07-28T18:23:18.833Z,28.40
2022-07-28T18:27:01.161Z,28.30
2022-07-28T18:30:44.779Z,28.10
2022-07-28T18:34:27.652Z,27.80
2022-07-28T18:38:11.837Z,27.60
2022-07-28T18:41:56.023Z,27.50
2022-07-28T18:45:38.800Z,27.10
2022-07-28T18:49:21.638Z,26.90
2022-07-28T18:53:04.203Z,26.50
2022-07-28T18:56:48.427Z,26.20
2022-07-28T19:00:31.114Z,25.90
2022-07-28T19:04:14.243Z,25.60
2022-07-28T19:07:57.174Z,25.50
2022-07-28T19:11:45.399Z,25.40
2022-07-28T19:15:30.265Z,25.30
2022-07-28T19:19:12.991Z,25.10
2022-07-28T19:22:55.525Z,24.90
2022-07-28T19:26:37.901Z,24.70
2022-07-28T19:30:20.412Z,24.60
2022-07-28T19:34:04.767Z,24.50
2022-07-28T19:37:47.307Z,24.40
2022-07-28T19:41:31.573Z,24.30
2022-07-28T19:45:14.383Z,24.20
2022-07-28T19:48:57.466Z,24.10
2022-07-28T19:52:41.535Z,23.90
2022-07-28T19:56:30.262Z,23.70
2022-07-28T20:00:14.391Z,23.60
2022-07-28T20:04:00.651Z,23.60
2022-07-28T20:07:48.151Z,23.50
2022-07-28T20:11:32.827Z,23.50
2022-07-28T20:15:16.014Z,23.50
2022-07-28T20:18:58.396Z,23.50
2022-07-28T20:22:42.165Z,23.50
2022-07-28T20:26:27.140Z,23.40
2022-07-28T20:30:10.610Z,23.10
2022-07-28T20:33:53.401Z,22.60
2022-07-28T20:37:37.591Z,22.30
2022-07-28T20:41:20.663Z,21.90
2022-07-28T20:45:05.902Z,21.80
2022-07-28T20:48:48.601Z,21.60
2022-07-28T20:52:31.355Z,21.40
2022-07-28T20:56:13.988Z,21.30
2022-07-28T20:59:56.492Z,21.20
2022-07-28T21:03:40.512Z,21.00
2022-07-28T21:08:00.200Z,20.90
2022-07-28T21:11:35.072Z,20.80
2022-07-28T21:15:20.580Z,20.60
2022-07-28T21:19:05.698Z,20.40
2022-07-28T21:22:48.657Z,20.30
2022-07-28T21:26:31.528Z,20.20
2022-07-28T21:30:14.973Z,20.10
2022-07-28T21:33:57.514Z,20.00
2022-07-28T21:37:41.683Z,19.90
2022-07-28T21:41:25.320Z,19.80
2022-07-28T21:45:11.257Z,19.70
2022-07-28T21:48:54.744Z,19.60
2022-07-28T21:52:37.667Z,19.60
2022-07-28T21:56:21.905Z,19.60
2022-07-28T22:00:07.705Z,19.60
2022-07-28T22:03:51.285Z,19.50
2022-07-28T22:07:33.984Z,19.40
2022-07-28T22:11:16.792Z,19.30
2022-07-28T22:15:00.784Z,19.30
2022-07-28T22:18:43.118Z,19.20
2022-07-28T22:22:25.785Z,19.10
2022-07-28T22:26:08.646Z,19.10
2022-07-28T22:29:52.052Z,19.10
2022-07-28T22:33:36.350Z,19.20
2022-07-28T22:52:43.506Z,18.80
2022-07-28T22:56:26.301Z,18.70
2022-07-28T23:00:18.143Z,18.70
2022-07-28T23:04:02.470Z,18.60
2022-07-28T23:07:52.957Z,18.60
2022-07-28T23:11:40.161Z,18.60
2022-07-28T23:15:22.850Z,18.50
2022-07-28T23:19:06.377Z,18.50
2022-07-28T23:22:50.745Z,18.40
2022-07-28T23:26:34.242Z,18.40
2022-07-28T23:30:17.000Z,18.40
2022-07-28T23:33:59.888Z,18.30
2022-07-28T23:37:45.399Z,18.30
2022-07-28T23:41:29.794Z,18.30
2022-07-28T23:45:12.833Z,18.30
2022-07-28T23:48:55.551Z,18.20
2022-07-28T23:52:38.467Z,18.20
2022-07-28T23:56:20.859Z,18.20
